createdAt,value
2019-05-22T00:00:31.515Z,14.70
2019-05-22T00:01:42.861Z,14.70
2019-05-22T00:02:47.568Z,14.70
2019-05-22T00:03:56.202Z,14.60
2019-05-22T00:05:11.126Z,14.60
2019-05-22T00:06:16.119Z,14.60
2019-05-22T00:07:20.210Z,14.60
2019-05-22T00:08:25.743Z,14.60
2019-05-22T00:09:36.703Z,14.70
2019-05-22T00:10:44.847Z,14.60
2019-05-22T00:11:49.691Z,14.60
2019-05-22T00:12:55.008Z,14.60
2019-05-22T00:13:59.712Z,14.60
2019-05-22T00:15:04.009Z,14.60
2019-05-22T00:16:08.917Z,14.60
2019-05-22T00:17:14.422Z,14.60
2019-05-22T00:18:19.486Z,14.60
2019-05-22T00:19:24.862Z,14.60
2019-05-22T00:20:29.580Z,14.60
2019-05-22T00:21:35.050Z,14.60
2019-05-22T00:22:39.201Z,14.60
2019-05-22T00:23:44.519Z,14.60
2019-05-22T00:24:49.881Z,14.60
2019-05-22T00:25:55.071Z,14.60
2019-05-22T00:27:00.354Z,14.60
2019-05-22T00:28:05.214Z,14.60
2019-05-22T00:29:09.089Z,14.60
2019-05-22T00:30:15.164Z,14.60
2019-05-22T00:31:20.571Z,14.60
2019-05-22T00:32:25.773Z,14.50
2019-05-22T00:33:29.867Z,14.40
2019-05-22T00:34:35.756Z,14.40
2019-05-22T00:35:39.872Z,14.30
2019-05-22T00:36:44.635Z,14.30
2019-05-22T00:37:49.457Z,14.20
2019-05-22T00:38:55.323Z,14.30
2019-05-22T00:40:00.639Z,14.30
2019-05-22T00:41:08.583Z,14.30
2019-05-22T00:42:13.796Z,14.30
2019-05-22T00:43:19.363Z,14.30
2019-05-22T00:44:23.000Z,14.30
2019-05-22T00:45:28.859Z,14.30
2019-05-22T00:46:34.078Z,14.30
2019-05-22T00:47:38.484Z,14.30
2019-05-22T00:48:44.389Z,14.30
2019-05-22T00:49:49.591Z,14.30
2019-05-22T00:51:04.660Z,14.30
2019-05-22T00:52:17.204Z,14.30
2019-05-22T00:53:42.047Z,14.30
2019-05-22T00:54:47.263Z,14.30
2019-05-22T00:55:52.742Z,14.20
2019-05-22T00:56:58.025Z,14.20
2019-05-22T00:58:21.535Z,14.30
2019-05-22T00:59:31.403Z,14.20
2019-05-22T01:00:40.766Z,14.20
2019-05-22T01:01:45.908Z,14.30
2019-05-22T01:02:51.880Z,14.30
2019-05-22T01:03:57.070Z,14.30
2019-05-22T01:05:01.323Z,14.30
2019-05-22T01:06:05.921Z,14.30
2019-05-22T01:07:12.796Z,14.30
2019-05-22T01:08:16.831Z,14.30
2019-05-22T01:09:32.797Z,14.30
2019-05-22T01:10:38.079Z,14.30
2019-05-22T01:11:45.146Z,14.30
2019-05-22T01:12:51.315Z,14.30
2019-05-22T01:13:55.420Z,14.30
2019-05-22T01:15:04.417Z,14.20
2019-05-22T01:16:10.932Z,14.30
2019-05-22T01:17:15.615Z,14.20
2019-05-22T01:18:20.619Z,14.30
2019-05-22T01:19:24.908Z,14.30
2019-05-22T01:20:29.322Z,14.30
2019-05-22T01:21:33.535Z,14.30
2019-05-22T01:22:38.740Z,14.30
2019-05-22T01:23:43.427Z,14.20
2019-05-22T01:24:51.553Z,14.20
2019-05-22T01:25:55.491Z,14.20
2019-05-22T01:27:00.687Z,14.20
2019-05-22T01:28:06.840Z,14.30
2019-05-22T01:29:12.135Z,14.30
2019-05-22T01:30:19.178Z,14.30
2019-05-22T01:31:24.867Z,14.30
2019-05-22T01:32:36.901Z,14.20
2019-05-22T01:33:45.001Z,14.20
2019-05-22T01:34:49.187Z,14.20
2019-05-22T01:35:56.060Z,14.20
2019-05-22T01:37:01.280Z,14.20
2019-05-22T01:38:06.912Z,14.20
2019-05-22T01:39:15.214Z,14.20
2019-05-22T01:40:23.510Z,14.20
2019-05-22T01:41:30.518Z,14.20
2019-05-22T01:42:38.271Z,14.20
2019-05-22T01:43:43.760Z,14.10
2019-05-22T01:45:01.094Z,14.10
2019-05-22T01:45:53.772Z,14.10
2019-05-22T01:47:00.463Z,14.10
2019-05-22T01:48:09.348Z,14.10
2019-05-22T01:49:14.656Z,14.10
2019-05-22T01:50:22.233Z,14.00
2019-05-22T01:51:25.942Z,14.10
2019-05-22T01:52:31.206Z,14.00
2019-05-22T01:53:37.747Z,14.00
2019-05-22T01:54:42.093Z,14.10
2019-05-22T01:55:45.788Z,14.00
2019-05-22T01:56:52.118Z,14.10
2019-05-22T01:57:56.006Z,14.10
2019-05-22T01:59:00.970Z,14.10
2019-05-22T02:00:08.647Z,14.10
2019-05-22T02:01:23.956Z,14.10
2019-05-22T02:02:29.179Z,14.10
2019-05-22T02:03:34.874Z,14.00
2019-05-22T02:04:38.630Z,14.00
2019-05-22T02:05:43.818Z,14.00
2019-05-22T02:06:49.142Z,14.00
2019-05-22T02:07:54.638Z,14.00
2019-05-22T02:09:05.907Z,14.00
2019-05-22T02:10:14.204Z,14.00
2019-05-22T02:11:22.508Z,14.00
2019-05-22T02:12:41.763Z,14.10
2019-05-22T02:13:54.886Z,14.00
2019-05-22T02:14:59.433Z,14.10
2019-05-22T02:16:03.081Z,14.10
2019-05-22T02:17:09.462Z,14.10
2019-05-22T02:18:15.210Z,14.10
2019-05-22T02:19:21.248Z,14.10
2019-05-22T02:20:26.927Z,14.00
2019-05-22T02:21:31.605Z,14.10
2019-05-22T02:22:35.223Z,14.10
2019-05-22T02:23:39.493Z,14.00
2019-05-22T02:24:44.476Z,14.10
2019-05-22T02:25:50.038Z,14.10
2019-05-22T02:26:54.478Z,14.10
2019-05-22T02:27:59.516Z,14.10
2019-05-22T02:29:05.385Z,14.00
2019-05-22T02:30:11.039Z,14.10
2019-05-22T02:31:17.541Z,14.10
2019-05-22T02:32:21.667Z,14.20
2019-05-22T02:33:27.062Z,14.20
2019-05-22T02:34:32.656Z,14.20
2019-05-22T02:35:36.686Z,14.20
2019-05-22T02:36:42.719Z,14.20
2019-05-22T02:37:48.426Z,14.20
2019-05-22T02:38:52.542Z,14.20
2019-05-22T02:39:56.164Z,14.20
2019-05-22T02:41:00.357Z,14.20
2019-05-22T02:42:07.895Z,14.10
2019-05-22T02:43:13.332Z,14.20
2019-05-22T02:44:17.558Z,14.20
2019-05-22T02:45:22.457Z,14.10
2019-05-22T02:46:27.039Z,14.10
2019-05-22T02:47:32.439Z,14.10
2019-05-22T02:48:37.200Z,14.10
2019-05-22T02:49:41.831Z,14.10
2019-05-22T02:50:48.310Z,14.10
2019-05-22T02:51:54.443Z,14.10
2019-05-22T02:52:59.133Z,14.20
2019-05-22T02:54:04.404Z,14.20
2019-05-22T02:55:09.356Z,14.20
2019-05-22T02:56:13.476Z,14.20
2019-05-22T02:57:17.188Z,14.20
2019-05-22T02:58:21.588Z,14.20
2019-05-22T02:59:25.343Z,14.20
2019-05-22T03:00:33.664Z,14.20
2019-05-22T03:01:37.943Z,14.20
2019-05-22T03:02:47.804Z,14.10
2019-05-22T03:03:51.648Z,14.10
2019-05-22T03:04:58.785Z,14.10
2019-05-22T03:06:04.010Z,14.00
2019-05-22T03:07:09.263Z,14.00
2019-05-22T03:08:12.969Z,14.00
2019-05-22T03:09:21.976Z,14.00
2019-05-22T03:10:26.718Z,13.90
2019-05-22T03:11:37.892Z,14.00
2019-05-22T03:12:42.946Z,13.90
2019-05-22T03:14:03.449Z,13.90
2019-05-22T03:15:13.093Z,13.90
2019-05-22T03:16:17.795Z,13.90
2019-05-22T03:17:30.639Z,13.90
2019-05-22T03:18:34.838Z,13.90
2019-05-22T03:19:45.454Z,13.90
2019-05-22T03:20:49.969Z,13.90
2019-05-22T03:21:53.744Z,13.90
2019-05-22T03:23:07.334Z,13.90
2019-05-22T03:24:11.857Z,13.90
2019-05-22T03:25:18.530Z,14.00
2019-05-22T03:26:24.611Z,14.00
2019-05-22T03:27:37.984Z,14.00
2019-05-22T03:28:43.338Z,14.00
2019-05-22T03:29:53.170Z,14.00
2019-05-22T03:30:57.117Z,14.00
2019-05-22T03:32:01.944Z,14.00
2019-05-22T03:33:08.239Z,14.10
2019-05-22T03:34:14.052Z,14.10
2019-05-22T03:35:18.487Z,14.10
2019-05-22T03:36:23.247Z,14.10
2019-05-22T03:37:27.055Z,14.10
2019-05-22T03:38:31.919Z,14.00
2019-05-22T03:39:36.052Z,14.00
2019-05-22T03:40:41.153Z,14.00
2019-05-22T03:41:45.566Z,14.00
2019-05-22T03:42:51.436Z,14.00
2019-05-22T03:43:56.170Z,14.00
2019-05-22T03:45:00.968Z,14.00
2019-05-22T03:46:24.481Z,14.00
2019-05-22T03:47:28.677Z,14.00
2019-05-22T03:48:36.408Z,14.00
2019-05-22T03:49:42.054Z,13.90
2019-05-22T03:50:46.746Z,13.90
2019-05-22T03:51:53.072Z,13.90
2019-05-22T03:53:00.206Z,13.90
2019-05-22T03:54:05.932Z,13.90
2019-05-22T03:55:11.890Z,14.00
2019-05-22T03:56:17.848Z,13.90
2019-05-22T03:57:22.094Z,14.00
2019-05-22T03:58:26.370Z,14.00
2019-05-22T03:59:30.491Z,14.00
2019-05-22T04:00:34.817Z,14.00
2019-05-22T04:01:38.384Z,13.90
2019-05-22T04:02:44.059Z,13.90
2019-05-22T04:03:48.375Z,14.00
2019-05-22T04:04:52.705Z,13.90
2019-05-22T04:05:56.605Z,13.90
2019-05-22T04:07:02.266Z,13.90
2019-05-22T04:08:07.987Z,13.90
2019-05-22T04:09:20.829Z,13.90
2019-05-22T04:10:25.974Z,13.90
2019-05-22T04:11:33.652Z,13.90
2019-05-22T04:12:38.080Z,13.90
2019-05-22T04:13:42.573Z,13.80
2019-05-22T04:14:46.630Z,13.80
2019-05-22T04:15:51.018Z,13.80
2019-05-22T04:16:55.339Z,13.80
2019-05-22T04:18:02.824Z,13.80
2019-05-22T04:19:06.570Z,13.80
2019-05-22T04:20:13.737Z,13.70
2019-05-22T04:21:17.407Z,13.70
2019-05-22T04:22:22.271Z,13.80
2019-05-22T04:23:25.934Z,13.80
2019-05-22T04:24:30.398Z,13.70
2019-05-22T04:25:34.034Z,13.70
2019-05-22T04:26:38.984Z,13.70
2019-05-22T04:27:43.290Z,13.70
2019-05-22T04:28:49.460Z,13.70
2019-05-22T04:29:53.971Z,13.80
2019-05-22T04:30:59.986Z,13.80
2019-05-22T04:32:15.097Z,13.80
2019-05-22T04:33:19.360Z,13.70
2019-05-22T04:34:23.125Z,13.80
2019-05-22T04:35:28.280Z,13.70
2019-05-22T04:36:32.267Z,13.70
2019-05-22T04:37:36.797Z,13.70
2019-05-22T04:38:40.812Z,13.70
2019-05-22T04:39:46.677Z,13.70
2019-05-22T04:40:51.405Z,13.70
2019-05-22T04:41:57.073Z,13.70
2019-05-22T04:43:01.275Z,13.70
2019-05-22T04:44:05.685Z,13.70
2019-05-22T04:45:15.880Z,13.70
2019-05-22T04:46:20.573Z,13.70
2019-05-22T04:47:24.364Z,13.70
2019-05-22T04:48:29.897Z,13.70
2019-05-22T04:49:34.175Z,13.70
2019-05-22T04:50:38.309Z,13.70
2019-05-22T04:51:42.120Z,13.70
2019-05-22T04:53:49.659Z,13.60
2019-05-22T04:54:53.949Z,13.60
2019-05-22T04:55:57.712Z,13.60
2019-05-22T04:57:02.193Z,13.60
2019-05-22T04:58:10.659Z,13.60
2019-05-22T04:59:15.426Z,13.60
2019-05-22T05:00:19.944Z,13.60
2019-05-22T05:01:25.315Z,13.70
2019-05-22T05:02:28.960Z,13.70
2019-05-22T05:03:33.220Z,13.60
2019-05-22T05:04:36.796Z,13.60
2019-05-22T05:05:42.075Z,13.60
2019-05-22T05:06:45.953Z,13.70
2019-05-22T05:07:51.288Z,13.60
2019-05-22T05:08:55.600Z,13.60
2019-05-22T05:09:59.997Z,13.60
2019-05-22T05:11:03.924Z,13.60
2019-05-22T05:12:10.590Z,13.50
2019-05-22T05:13:14.801Z,13.50
2019-05-22T05:14:18.939Z,13.60
2019-05-22T05:15:22.654Z,13.50
2019-05-22T05:16:26.792Z,13.60
2019-05-22T05:17:30.667Z,13.50
2019-05-22T05:18:35.833Z,13.50
2019-05-22T05:19:40.352Z,13.60
2019-05-22T05:20:44.912Z,13.60
2019-05-22T05:21:48.616Z,13.60
2019-05-22T05:22:52.783Z,13.60
2019-05-22T05:23:56.593Z,13.70
2019-05-22T05:25:00.747Z,13.80
2019-05-22T05:26:04.350Z,13.70
2019-05-22T05:27:08.554Z,13.70
2019-05-22T05:28:12.659Z,13.70
2019-05-22T05:29:28.380Z,13.70
2019-05-22T05:30:32.557Z,13.80
2019-05-22T05:31:37.021Z,13.80
2019-05-22T05:32:40.931Z,13.80
2019-05-22T05:33:57.216Z,13.80
2019-05-22T05:35:02.561Z,13.90
2019-05-22T05:36:07.695Z,13.80
2019-05-22T05:37:13.359Z,13.90
2019-05-22T05:38:17.919Z,13.80
2019-05-22T05:39:33.530Z,13.70
2019-05-22T05:40:40.893Z,13.70
2019-05-22T05:41:44.525Z,13.70
2019-05-22T05:42:48.705Z,13.80
2019-05-22T05:43:52.616Z,13.70
2019-05-22T05:44:56.806Z,13.70
2019-05-22T05:46:00.796Z,13.70
2019-05-22T05:47:06.876Z,13.70
2019-05-22T05:48:13.315Z,13.70
2019-05-22T05:49:17.711Z,13.70
2019-05-22T05:50:30.490Z,13.70
2019-05-22T05:51:30.940Z,13.70
2019-05-22T05:52:34.580Z,13.70
2019-05-22T05:54:00.646Z,13.70
2019-05-22T05:55:05.230Z,13.70
2019-05-22T05:56:17.140Z,13.70
2019-05-22T05:57:39.242Z,13.70
2019-05-22T05:58:43.979Z,13.70
2019-05-22T05:59:49.273Z,13.70
2019-05-22T06:00:56.748Z,13.70
2019-05-22T06:02:00.389Z,13.70
2019-05-22T06:03:29.995Z,13.70
2019-05-22T06:04:36.062Z,13.70
2019-05-22T06:05:40.214Z,13.70
2019-05-22T06:06:50.126Z,13.70
2019-05-22T06:07:54.476Z,13.70
2019-05-22T06:08:58.856Z,13.70
2019-05-22T06:10:25.922Z,13.80
2019-05-22T06:11:41.030Z,13.80
2019-05-22T06:12:45.377Z,13.70
2019-05-22T06:13:48.951Z,13.70
2019-05-22T06:14:54.586Z,13.80
2019-05-22T06:16:11.790Z,13.80
2019-05-22T06:17:45.034Z,13.80
2019-05-22T06:18:48.704Z,13.70
2019-05-22T06:19:56.269Z,13.70
2019-05-22T06:21:04.040Z,13.70
2019-05-22T06:22:08.171Z,13.60
2019-05-22T06:23:27.503Z,13.70
2019-05-22T06:24:40.903Z,13.70
2019-05-22T06:25:44.575Z,13.60
2019-05-22T06:26:57.739Z,13.60
2019-05-22T06:28:02.963Z,13.50
2019-05-22T06:29:08.756Z,13.50
2019-05-22T06:30:21.689Z,13.60
2019-05-22T06:31:37.716Z,13.60
2019-05-22T06:33:08.720Z,13.50
2019-05-22T06:34:13.361Z,13.50
2019-05-22T06:35:17.946Z,13.60
2019-05-22T06:36:23.015Z,13.60
2019-05-22T06:37:33.087Z,13.60
2019-05-22T06:38:55.788Z,13.60
2019-05-22T06:40:00.187Z,13.70
2019-05-22T06:41:06.064Z,13.70
2019-05-22T06:42:10.491Z,13.70
2019-05-22T06:43:28.168Z,13.70
2019-05-22T06:44:33.868Z,13.70
2019-05-22T06:45:38.142Z,13.70
2019-05-22T06:46:47.135Z,13.70
2019-05-22T06:47:51.343Z,13.80
2019-05-22T06:48:58.060Z,13.80
2019-05-22T06:50:02.302Z,13.80
2019-05-22T06:51:18.572Z,13.80
2019-05-22T06:52:12.061Z,13.80
2019-05-22T06:53:15.980Z,13.80
2019-05-22T06:54:20.196Z,13.80
2019-05-22T06:55:24.119Z,13.80
2019-05-22T06:56:28.459Z,13.80
2019-05-22T06:57:33.836Z,13.80
2019-05-22T06:58:38.040Z,13.80
2019-05-22T06:59:43.701Z,13.80
2019-05-22T07:00:48.131Z,13.70
2019-05-22T07:02:00.355Z,13.70
2019-05-22T07:02:57.891Z,13.60
2019-05-22T07:04:01.610Z,13.60
2019-05-22T07:05:08.638Z,13.60
2019-05-22T07:06:12.417Z,13.60
2019-05-22T07:07:17.812Z,13.70
2019-05-22T07:08:21.960Z,13.70
2019-05-22T07:09:26.577Z,13.60
2019-05-22T07:10:31.736Z,13.60
2019-05-22T07:11:35.978Z,13.60
2019-05-22T07:12:40.157Z,13.60
2019-05-22T07:13:45.051Z,13.70
2019-05-22T07:15:00.713Z,13.70
2019-05-22T07:16:05.360Z,13.70
2019-05-22T07:17:11.113Z,13.70
2019-05-22T07:18:16.853Z,13.60
2019-05-22T07:19:23.164Z,13.60
2019-05-22T07:20:29.107Z,13.60
2019-05-22T07:21:34.146Z,13.70
2019-05-22T07:22:39.229Z,13.60
2019-05-22T07:23:43.070Z,13.70
2019-05-22T07:24:47.962Z,13.80
2019-05-22T07:25:52.460Z,13.80
2019-05-22T07:26:59.712Z,13.80
2019-05-22T07:28:04.392Z,13.90
2019-05-22T07:29:09.514Z,13.80
2019-05-22T07:30:15.064Z,13.80
2019-05-22T07:31:20.036Z,13.80
2019-05-22T07:32:24.783Z,13.80
2019-05-22T07:33:28.980Z,13.80
2019-05-22T07:34:33.021Z,13.80
2019-05-22T07:35:56.454Z,13.60
2019-05-22T07:36:44.443Z,13.60
2019-05-22T07:37:49.847Z,13.50
2019-05-22T07:38:53.498Z,13.50
2019-05-22T07:39:57.797Z,13.60
2019-05-22T07:41:02.071Z,13.60
2019-05-22T07:42:06.198Z,13.60
2019-05-22T07:43:10.210Z,13.60
2019-05-22T07:44:14.476Z,13.60
2019-05-22T07:45:19.879Z,13.50
2019-05-22T07:46:25.169Z,13.60
2019-05-22T07:47:28.979Z,13.60
2019-05-22T07:48:33.459Z,13.60
2019-05-22T07:49:37.464Z,13.60
2019-05-22T07:50:42.903Z,13.60
2019-05-22T07:51:56.066Z,13.70
2019-05-22T07:52:53.127Z,13.70
2019-05-22T07:53:57.640Z,13.70
2019-05-22T07:55:02.259Z,13.60
2019-05-22T07:56:10.558Z,13.60
2019-05-22T07:57:17.924Z,13.70
2019-05-22T07:58:22.441Z,13.70
2019-05-22T07:59:26.563Z,13.60
2019-05-22T08:00:30.816Z,13.60
2019-05-22T08:01:35.114Z,13.60
2019-05-22T08:02:43.587Z,13.60
2019-05-22T08:03:49.268Z,13.60
2019-05-22T08:04:53.026Z,13.60
2019-05-22T08:05:59.091Z,13.60
2019-05-22T08:07:03.440Z,13.60
2019-05-22T08:08:08.336Z,13.60
2019-05-22T08:09:13.115Z,13.70
2019-05-22T08:10:18.552Z,13.60
2019-05-22T08:11:23.346Z,13.70
2019-05-22T08:12:28.824Z,13.70
2019-05-22T08:13:33.101Z,13.70
2019-05-22T08:14:39.304Z,13.70
2019-05-22T08:15:42.923Z,13.70
2019-05-22T08:16:47.780Z,13.60
2019-05-22T08:17:52.096Z,13.50
2019-05-22T08:18:56.295Z,13.50
2019-05-22T08:20:00.228Z,13.60
2019-05-22T08:21:04.630Z,13.60
2019-05-22T08:22:08.765Z,13.60
2019-05-22T08:23:13.265Z,13.60
2019-05-22T08:24:16.915Z,13.70
2019-05-22T08:25:21.317Z,13.60
2019-05-22T08:26:26.260Z,13.60
2019-05-22T08:27:31.800Z,13.60
2019-05-22T08:28:36.059Z,13.60
2019-05-22T08:29:40.856Z,13.60
2019-05-22T08:30:45.103Z,13.60
2019-05-22T08:31:49.710Z,13.70
2019-05-22T08:32:53.815Z,13.70
2019-05-22T08:33:58.752Z,13.70
2019-05-22T08:35:02.613Z,13.70
2019-05-22T08:36:07.352Z,13.60
2019-05-22T08:37:14.044Z,13.60
2019-05-22T08:38:19.172Z,13.50
2019-05-22T08:39:24.244Z,13.50
2019-05-22T08:40:28.655Z,13.50
2019-05-22T08:44:03.182Z,13.20
2019-05-22T08:44:49.155Z,13.20
2019-05-22T08:45:53.033Z,13.20
2019-05-22T08:46:57.510Z,13.10
2019-05-22T08:48:01.572Z,13.00
2019-05-22T08:49:06.208Z,13.00
2019-05-22T08:50:12.418Z,13.10
2019-05-22T08:51:16.534Z,13.00
2019-05-22T08:52:23.465Z,13.00
2019-05-22T08:53:26.992Z,13.00
2019-05-22T08:54:32.679Z,13.00
2019-05-22T08:55:37.985Z,13.00
2019-05-22T08:56:44.721Z,13.00
2019-05-22T08:57:48.973Z,13.00
2019-05-22T08:58:54.089Z,13.00
2019-05-22T08:59:58.347Z,13.00
2019-05-22T09:01:02.056Z,13.10
2019-05-22T09:02:07.911Z,13.10
2019-05-22T09:03:11.528Z,13.10
2019-05-22T09:04:15.924Z,13.10
2019-05-22T09:05:21.592Z,13.10
2019-05-22T09:06:25.327Z,13.20
2019-05-22T09:07:28.980Z,13.20
2019-05-22T09:08:33.790Z,13.20
2019-05-22T09:09:37.623Z,13.20
2019-05-22T09:10:42.024Z,13.30
2019-05-22T09:11:45.670Z,13.40
2019-05-22T09:12:49.829Z,13.40
2019-05-22T09:13:53.435Z,13.40
2019-05-22T09:14:57.556Z,13.50
2019-05-22T09:16:02.215Z,13.50
2019-05-22T09:17:08.145Z,13.60
2019-05-22T09:18:12.589Z,13.70
2019-05-22T09:19:17.085Z,13.70
2019-05-22T09:20:21.578Z,13.70
2019-05-22T09:21:27.039Z,13.80
2019-05-22T09:22:40.560Z,13.80
2019-05-22T09:23:38.215Z,13.80
2019-05-22T09:24:43.304Z,13.80
2019-05-22T09:25:47.736Z,13.80
2019-05-22T09:26:51.303Z,13.90
2019-05-22T09:27:55.793Z,13.90
2019-05-22T09:28:59.424Z,13.90
2019-05-22T09:30:03.844Z,13.90
2019-05-22T09:31:07.479Z,14.00
2019-05-22T09:32:11.600Z,14.00
2019-05-22T09:33:16.244Z,14.00
2019-05-22T09:34:20.465Z,14.10
2019-05-22T09:35:24.217Z,14.10
2019-05-22T09:36:28.414Z,14.10
2019-05-22T09:37:32.106Z,14.10
2019-05-22T09:38:36.745Z,14.10
2019-05-22T09:39:40.315Z,14.10
2019-05-22T09:40:44.985Z,14.10
2019-05-22T09:41:48.725Z,14.10
2019-05-22T09:42:53.297Z,14.10
2019-05-22T09:43:56.872Z,14.10
2019-05-22T09:45:01.017Z,14.10
2019-05-22T09:46:05.431Z,14.20
2019-05-22T09:47:10.893Z,14.20
2019-05-22T09:48:14.939Z,14.30
2019-05-22T09:49:19.192Z,14.30
2019-05-22T09:50:24.274Z,14.30
2019-05-22T09:51:28.642Z,14.40
2019-05-22T09:52:32.471Z,14.40
2019-05-22T09:53:36.978Z,14.40
2019-05-22T09:54:41.651Z,14.30
2019-05-22T09:55:47.584Z,14.20
2019-05-22T09:56:51.495Z,14.10
2019-05-22T09:57:55.855Z,14.00
2019-05-22T09:58:59.801Z,14.00
2019-05-22T10:00:07.298Z,14.00
2019-05-22T10:01:12.084Z,14.00
2019-05-22T10:02:16.458Z,13.90
2019-05-22T10:03:21.680Z,13.90
2019-05-22T10:04:25.915Z,13.90
2019-05-22T10:05:30.739Z,13.90
2019-05-22T10:06:34.964Z,13.90
2019-05-22T10:07:57.224Z,13.80
2019-05-22T10:08:45.043Z,13.80
2019-05-22T10:09:49.196Z,13.80
2019-05-22T10:10:53.320Z,13.80
2019-05-22T10:11:57.269Z,13.80
2019-05-22T10:13:01.639Z,13.80
2019-05-22T10:14:06.407Z,13.80
2019-05-22T10:15:11.432Z,13.80
2019-05-22T10:16:15.154Z,13.90
2019-05-22T10:17:19.420Z,13.90
2019-05-22T10:18:23.078Z,13.90
2019-05-22T10:19:27.415Z,13.90
2019-05-22T10:20:31.288Z,13.90
2019-05-22T10:21:36.648Z,13.90
2019-05-22T10:22:40.447Z,13.90
2019-05-22T10:23:45.105Z,13.90
2019-05-22T10:24:50.528Z,13.90
2019-05-22T10:25:55.418Z,13.80
2019-05-22T10:26:59.220Z,13.90
2019-05-22T10:28:04.021Z,13.80
2019-05-22T10:29:08.354Z,13.90
2019-05-22T10:30:19.072Z,13.90
2019-05-22T10:31:22.676Z,14.00
2019-05-22T10:32:32.161Z,14.00
2019-05-22T10:33:35.287Z,14.00
2019-05-22T10:34:39.550Z,14.10
2019-05-22T10:35:43.174Z,14.20
2019-05-22T10:36:47.400Z,14.20
2019-05-22T10:37:51.917Z,14.20
2019-05-22T10:38:56.108Z,14.30
2019-05-22T10:40:00.014Z,14.30
2019-05-22T10:41:04.580Z,14.30
2019-05-22T10:42:08.147Z,14.30
2019-05-22T10:43:12.582Z,14.30
2019-05-22T10:44:16.320Z,14.30
2019-05-22T10:45:20.875Z,14.20
2019-05-22T10:46:24.650Z,14.30
2019-05-22T10:47:28.781Z,14.30
2019-05-22T10:48:32.390Z,14.20
2019-05-22T10:49:36.500Z,14.10
2019-05-22T10:50:40.090Z,14.00
2019-05-22T10:51:44.468Z,13.90
2019-05-22T10:52:54.044Z,13.80
2019-05-22T10:53:55.120Z,13.80
2019-05-22T10:54:59.369Z,13.80
2019-05-22T10:56:03.961Z,13.80
2019-05-22T10:57:07.909Z,13.80
2019-05-22T10:58:12.441Z,13.80
2019-05-22T10:59:16.031Z,13.70
2019-05-22T11:00:21.458Z,13.70
2019-05-22T11:01:25.365Z,13.70
2019-05-22T11:02:29.901Z,13.70
2019-05-22T11:03:34.140Z,13.70
2019-05-22T11:04:38.792Z,13.80
2019-05-22T11:05:43.231Z,13.80
2019-05-22T11:06:47.823Z,13.90
2019-05-22T11:07:52.318Z,14.00
2019-05-22T11:08:56.978Z,14.00
2019-05-22T11:10:00.727Z,14.10
2019-05-22T11:11:05.258Z,14.20
2019-05-22T11:12:09.851Z,14.20
2019-05-22T11:13:14.598Z,14.30
2019-05-22T11:14:18.358Z,14.30
2019-05-22T11:15:23.871Z,14.40
2019-05-22T11:16:27.363Z,14.50
2019-05-22T11:17:31.488Z,14.40
2019-05-22T11:18:35.826Z,14.30
2019-05-22T11:19:39.992Z,14.40
2019-05-22T11:20:43.723Z,14.40
2019-05-22T11:21:48.180Z,14.40
2019-05-22T11:22:51.748Z,14.30
2019-05-22T11:23:55.861Z,14.30
2019-05-22T11:24:59.467Z,14.30
2019-05-22T11:26:04.045Z,14.30
2019-05-22T11:27:08.052Z,14.40
2019-05-22T11:28:12.261Z,14.40
2019-05-22T11:29:15.976Z,14.50
2019-05-22T11:30:20.891Z,14.60
2019-05-22T11:31:24.532Z,14.60
2019-05-22T11:32:28.656Z,14.60
2019-05-22T11:33:34.317Z,14.60
2019-05-22T11:34:38.199Z,14.70
2019-05-22T11:35:41.843Z,14.70
2019-05-22T11:36:46.029Z,14.80
2019-05-22T11:37:50.033Z,14.80
2019-05-22T11:38:54.191Z,14.70
2019-05-22T11:39:57.946Z,14.80
2019-05-22T11:41:02.124Z,14.80
2019-05-22T11:42:05.871Z,14.90
2019-05-22T11:43:11.795Z,14.90
2019-05-22T11:44:15.485Z,15.00
2019-05-22T11:45:21.224Z,15.10
2019-05-22T11:46:24.791Z,15.10
2019-05-22T11:47:29.214Z,15.10
2019-05-22T11:48:32.899Z,15.10
2019-05-22T11:49:37.144Z,15.00
2019-05-22T11:50:41.266Z,15.00
2019-05-22T11:51:46.131Z,15.00
2019-05-22T11:52:50.070Z,15.10
2019-05-22T11:54:08.289Z,15.00
2019-05-22T11:54:59.572Z,15.00
2019-05-22T11:56:03.856Z,15.00
2019-05-22T11:57:07.672Z,15.00
2019-05-22T11:58:12.394Z,14.90
2019-05-22T11:59:16.037Z,14.90
2019-05-22T12:00:22.012Z,14.90
2019-05-22T12:01:25.715Z,14.80
2019-05-22T12:02:29.993Z,14.80
2019-05-22T12:03:35.344Z,14.80
2019-05-22T12:04:48.156Z,14.80
2019-05-22T12:05:45.632Z,14.80
2019-05-22T12:06:53.247Z,14.70
2019-05-22T12:07:55.410Z,14.70
2019-05-22T12:08:59.706Z,14.80
2019-05-22T12:10:04.377Z,14.80
2019-05-22T12:11:09.962Z,14.70
2019-05-22T12:12:14.226Z,14.80
2019-05-22T12:13:18.424Z,14.60
2019-05-22T12:14:22.139Z,14.50
2019-05-22T12:15:28.109Z,14.40
2019-05-22T12:16:31.851Z,14.40
2019-05-22T12:17:39.018Z,14.30
2019-05-22T12:18:42.750Z,14.10
2019-05-22T12:19:47.000Z,14.10
2019-05-22T12:20:51.006Z,14.00
2019-05-22T12:21:55.503Z,14.00
2019-05-22T12:22:59.460Z,14.00
2019-05-22T12:24:03.576Z,14.10
2019-05-22T12:25:10.168Z,14.10
2019-05-22T12:26:14.440Z,14.30
2019-05-22T12:27:18.307Z,14.30
2019-05-22T12:28:22.492Z,14.40
2019-05-22T12:29:27.108Z,14.50
2019-05-22T12:30:32.270Z,14.60
2019-05-22T12:31:36.043Z,14.70
2019-05-22T12:32:41.290Z,14.80
2019-05-22T12:33:45.146Z,14.90
2019-05-22T12:34:49.715Z,14.90
2019-05-22T12:35:54.166Z,15.00
2019-05-22T12:36:58.856Z,15.00
2019-05-22T12:38:04.810Z,14.80
2019-05-22T12:39:11.131Z,14.90
2019-05-22T12:40:19.283Z,14.80
2019-05-22T12:41:24.042Z,14.80
2019-05-22T12:42:27.881Z,14.70
2019-05-22T12:43:32.367Z,14.70
2019-05-22T12:44:36.720Z,14.60
2019-05-22T12:45:41.012Z,14.60
2019-05-22T12:46:44.576Z,14.70
2019-05-22T12:47:48.696Z,14.70
2019-05-22T12:48:53.421Z,14.70
2019-05-22T12:49:57.713Z,14.60
2019-05-22T12:51:01.658Z,14.60
2019-05-22T12:52:06.912Z,14.60
2019-05-22T12:53:12.597Z,14.60
2019-05-22T12:54:16.823Z,14.60
2019-05-22T12:55:20.947Z,14.60
2019-05-22T12:56:25.191Z,14.60
2019-05-22T12:57:29.134Z,14.60
2019-05-22T12:58:33.600Z,14.60
2019-05-22T12:59:37.271Z,14.60
2019-05-22T13:00:41.565Z,14.70
2019-05-22T13:01:47.458Z,14.70
2019-05-22T13:02:52.919Z,14.70
2019-05-22T13:03:56.801Z,14.80
2019-05-22T13:05:01.229Z,14.80
2019-05-22T13:06:06.604Z,14.80
2019-05-22T13:07:11.184Z,14.90
2019-05-22T13:08:15.191Z,15.00
2019-05-22T13:09:19.659Z,15.10
2019-05-22T13:10:24.307Z,15.20
2019-05-22T13:11:28.627Z,15.30
2019-05-22T13:12:32.868Z,15.40
2019-05-22T13:13:37.660Z,15.50
2019-05-22T13:14:41.640Z,15.50
2019-05-22T13:15:45.805Z,15.50
2019-05-22T13:16:49.478Z,15.60
2019-05-22T13:17:55.450Z,15.50
2019-05-22T13:18:59.443Z,15.50
2019-05-22T13:20:05.480Z,15.50
2019-05-22T13:21:12.287Z,15.50
2019-05-22T13:22:17.355Z,15.50
2019-05-22T13:23:24.733Z,15.70
2019-05-22T13:24:29.117Z,15.80
2019-05-22T13:25:36.414Z,16.00
2019-05-22T13:26:41.191Z,16.10
2019-05-22T13:27:45.345Z,16.20
2019-05-22T13:28:49.614Z,16.40
2019-05-22T13:29:55.095Z,16.50
2019-05-22T13:31:00.769Z,16.70
2019-05-22T13:32:05.669Z,16.80
2019-05-22T13:33:14.176Z,17.00
2019-05-22T13:34:19.163Z,16.90
2019-05-22T13:35:27.114Z,16.80
2019-05-22T13:36:30.811Z,16.90
2019-05-22T13:37:35.424Z,16.90
2019-05-22T13:38:39.651Z,16.80
2019-05-22T13:39:43.847Z,16.80
2019-05-22T13:40:48.466Z,16.70
2019-05-22T13:41:53.151Z,16.60
2019-05-22T13:42:58.595Z,16.50
2019-05-22T13:44:04.366Z,16.50
2019-05-22T13:45:26.011Z,16.40
2019-05-22T13:46:15.763Z,16.40
2019-05-22T13:47:19.411Z,16.30
2019-05-22T13:48:23.811Z,16.30
2019-05-22T13:49:28.420Z,16.20
2019-05-22T13:50:33.165Z,16.30
2019-05-22T13:51:36.803Z,16.30
2019-05-22T13:52:41.070Z,16.40
2019-05-22T13:53:45.791Z,16.50
2019-05-22T13:54:50.748Z,16.50
2019-05-22T13:55:54.745Z,16.60
2019-05-22T13:56:59.291Z,16.60
2019-05-22T13:58:04.379Z,16.60
2019-05-22T13:59:08.966Z,16.50
2019-05-22T14:00:15.431Z,16.40
2019-05-22T14:01:21.331Z,16.30
2019-05-22T14:02:27.353Z,16.30
2019-05-22T14:03:31.560Z,16.30
2019-05-22T14:04:35.346Z,16.30
2019-05-22T14:05:40.633Z,16.30
2019-05-22T14:06:44.344Z,16.40
2019-05-22T14:07:49.327Z,16.70